Time;durP1;ratioP1;P1;durP2;ratioP2;P2;SDS_P1;SDS_P2;PMS_P1;PMS_P2;Temp;Humidity;BMP_temperature;BMP_pressure;BME280_temperature;BME280_humidity;BME280_pressure;Samples;Min_cycle;Max_cycle;Signal;HPM_P1;HPM_P2
2021/03/18 00:00:36;;;;;;;22.48;11.85;;;;;;;9.02;51.62;102092.50;5092500;28;20230;-52
2021/03/18 00:03:04;;;;;;;21.65;11.48;;;;;;;9.02;51.73;102097.66;5089519;28;20547;-50
2021/03/18 00:05:32;;;;;;;19.83;12.52;;;;;;;8.97;51.78;102095.56;5092596;28;20220;-52
2021/03/18 00:07:59;;;;;;;26.95;13.80;;;;;;;9.09;51.51;102100.66;5090433;28;20219;-53
2021/03/18 00:10:25;;;;;;;24.30;11.80;;;;;;;8.76;52.32;102100.97;5092356;28;20617;-51
2021/03/18 00:12:52;;;;;;;20.92;12.88;;;;;;;8.65;52.40;102095.06;5091474;28;20207;-49
2021/03/18 00:15:19;;;;;;;22.88;11.73;;;;;;;8.63;52.81;102099.22;5055492;28;20229;-50
2021/03/18 00:17:46;;;;;;;26.88;13.77;;;;;;;8.77;52.48;102093.34;5064230;28;20233;-49
2021/03/18 00:20:15;;;;;;;24.30;12.95;;;;;;;8.87;52.51;102083.72;5064609;28;20654;-52
2021/03/18 00:22:43;;;;;;;22.02;12.25;;;;;;;9.02;51.97;102078.72;5066377;28;20255;-49
2021/03/18 00:25:12;;;;;;;24.90;13.13;;;;;;;9.23;51.30;102079.31;5071766;28;20231;-52
2021/03/18 00:27:40;;;;;;;27.67;11.80;;;;;;;9.37;51.55;102071.63;5070769;28;20291;-51
2021/03/18 00:30:08;;;;;;;25.77;14.32;;;;;;;9.50;50.99;102070.78;5071997;28;20240;-51
2021/03/18 00:32:35;;;;;;;26.05;14.40;;;;;;;9.86;49.98;102074.91;5063025;28;20214;-51
2021/03/18 00:35:05;;;;;;;27.05;14.32;;;;;;;9.37;50.94;102066.47;5067957;28;20245;-48
2021/03/18 00:37:32;;;;;;;22.58;12.77;;;;;;;9.30;51.20;102065.19;5072860;28;20212;-48
2021/03/18 00:40:00;;;;;;;20.90;12.40;;;;;;;8.97;52.22;102064.66;5064465;28;20240;-52
2021/03/18 00:42:26;;;;;;;23.67;13.20;;;;;;;8.98;52.33;102064.75;5073695;28;20238;-51
2021/03/18 00:44:53;;;;;;;25.92;13.38;;;;;;;9.24;51.61;102057.94;5069720;28;20332;-51
2021/03/18 00:47:20;;;;;;;22.93;14.10;;;;;;;9.03;52.28;102062.50;5072381;28;20224;-51
2021/03/18 00:49:46;;;;;;;24.48;13.73;;;;;;;9.18;52.05;102057.53;5067813;28;20466;-49
2021/03/18 00:52:13;;;;;;;23.45;13.70;;;;;;;9.11;52.45;102055.28;5071730;28;20258;-52
2021/03/18 00:54:41;;;;;;;28.90;15.45;;;;;;;9.36;51.69;102059.53;5071669;28;20236;-50
2021/03/18 00:57:07;;;;;;;30.15;16.77;;;;;;;9.26;51.79;102053.78;5069319;28;20526;-49
2021/03/18 00:59:34;;;;;;;32.95;16.52;;;;;;;9.47;52.27;102047.41;5066045;28;20264;-54
2021/03/18 01:02:12;;;;;;;28.25;16.42;;;;;;;9.36;51.47;102047.56;5069844;28;20270;-50
2021/03/18 01:04:39;;;;;;;30.85;16.58;;;;;;;9.93;50.36;102040.13;5069477;28;20236;-48
2021/03/18 01:07:05;;;;;;;33.20;17.45;;;;;;;9.62;51.25;102045.84;5070492;28;20208;-48
2021/03/18 01:09:32;;;;;;;29.13;16.70;;;;;;;9.50;51.33;102045.94;5069214;28;20316;-48
2021/03/18 01:11:59;;;;;;;28.08;16.63;;;;;;;9.17;51.84;102048.00;5069205;28;20222;-48
2021/03/18 01:14:26;;;;;;;31.52;17.17;;;;;;;8.98;52.36;102045.84;5058439;28;20237;-49
2021/03/18 01:16:53;;;;;;;29.67;16.65;;;;;;;9.22;52.40;102041.47;5056752;28;20210;-48
2021/03/18 01:19:21;;;;;;;30.30;17.35;;;;;;;9.21;52.71;102044.84;5060351;28;20224;-48
2021/03/18 01:21:49;;;;;;;34.58;19.17;;;;;;;9.44;51.72;102037.78;5055077;28;20571;-49
2021/03/18 01:24:16;;;;;;;31.23;16.63;;;;;;;9.23;52.47;102032.09;5053146;28;20589;-48
2021/03/18 01:26:43;;;;;;;30.63;16.77;;;;;;;9.23;52.82;102032.97;5055649;28;20208;-47
2021/03/18 01:29:11;;;;;;;29.67;17.25;;;;;;;8.86;53.67;102036.50;5056812;28;20236;-50
2021/03/18 01:31:38;;;;;;;46.92;19.17;;;;;;;8.85;54.42;102031.22;5055518;28;20607;-48
2021/03/18 01:34:05;;;;;;;35.17;18.83;;;;;;;8.76;54.32;102029.81;5058523;28;20303;-52
2021/03/18 01:36:34;;;;;;;60.35;18.98;;;;;;;8.93;54.74;102040.41;5056304;28;20289;-48
2021/03/18 01:39:01;;;;;;;160.10;22.63;;;;;;;8.69;54.85;102037.91;5056861;28;20644;-49
2021/03/18 01:41:29;;;;;;;49.42;20.88;;;;;;;8.59;55.50;102027.75;5063128;28;20292;-48
2021/03/18 01:43:55;;;;;;;101.22;20.63;;;;;;;8.30;56.17;102035.16;5060701;28;20307;-48
2021/03/18 01:46:23;;;;;;;99.57;21.88;;;;;;;8.72;55.56;102029.50;5067439;28;20605;-50
2021/03/18 01:48:50;;;;;;;185.50;24.75;;;;;;;8.85;54.83;102019.25;5059181;28;20233;-48
2021/03/18 01:51:18;;;;;;;96.03;22.73;;;;;;;8.83;54.53;102025.09;5062247;28;20216;-48
2021/03/18 01:53:45;;;;;;;68.82;20.38;;;;;;;8.75;55.10;102025.47;5057789;28;20542;-51
2021/03/18 01:56:12;;;;;;;63.88;19.40;;;;;;;8.89;54.13;102030.66;5060075;28;20608;-50
2021/03/18 01:58:42;;;;;;;115.25;24.30;;;;;;;8.45;55.50;102031.88;5061129;28;20241;-52
2021/03/18 02:01:09;;;;;;;50.17;20.80;;;;;;;8.34;56.07;102026.88;5069466;28;20205;-49
2021/03/18 02:03:38;;;;;;;143.40;46.85;;;;;;;8.20;56.85;102023.31;5059403;28;20241;-49
2021/03/18 02:06:05;;;;;;;84.43;27.92;;;;;;;8.22;56.77;102021.72;5064219;28;20507;-48
2021/03/18 02:08:32;;;;;;;76.10;18.50;;;;;;;8.39;56.26;102009.19;5064656;28;20307;-50
2021/03/18 02:10:58;;;;;;;60.42;22.25;;;;;;;8.34;56.95;102011.44;5064804;28;20232;-50
2021/03/18 02:13:26;;;;;;;81.13;20.98;;;;;;;8.22;56.78;102003.72;5057638;28;20635;-48
2021/03/18 02:15:54;;;;;;;167.70;23.45;;;;;;;8.49;56.33;102001.34;5061436;28;20208;-50
2021/03/18 02:18:28;;;;;;;57.42;23.20;;;;;;;8.17;57.88;102010.25;5065599;28;20684;-53
2021/03/18 02:21:30;;;;;;;85.35;22.20;;;;;;;8.67;56.26;102002.56;5067098;28;20212;-49
2021/03/18 02:24:22;;;;;;;46.42;18.85;;;;;;;8.19;56.66;102007.75;5055880;28;20228;-51
2021/03/18 02:27:11;;;;;;;198.55;25.83;;;;;;;8.49;55.81;102003.00;5059816;28;20611;-50
2021/03/18 02:30:25;;;;;;;47.83;19.52;;;;;;;8.08;56.51;102000.19;5061448;28;20238;-53
2021/03/18 02:33:04;;;;;;;177.57;22.70;;;;;;;8.06;56.75;101998.28;5043262;28;20213;-48
2021/03/18 02:35:34;;;;;;;42.70;17.17;;;;;;;7.53;57.22;102002.19;5069903;28;20224;-49
2021/03/18 02:38:04;;;;;;;43.70;18.90;;;;;;;7.49;57.95;101995.03;5063829;28;20332;-48
2021/03/18 02:40:33;;;;;;;50.90;19.42;;;;;;;7.16;58.87;102003.81;5081544;28;20224;-48
2021/03/18 02:43:02;;;;;;;58.50;18.23;;;;;;;7.65;57.25;101997.06;5082848;28;20200;-49
2021/03/18 02:45:34;;;;;;;45.75;15.40;;;;;;;6.80;59.84;101995.06;5084079;28;20228;-50
2021/03/18 02:48:02;;;;;;;34.38;13.48;;;;;;;7.09;59.30;101996.41;5081233;28;20216;-48
2021/03/18 02:50:31;;;;;;;47.25;10.57;;;;;;;6.98;58.59;101992.13;5085001;28;20244;-51
2021/03/18 02:52:59;;;;;;;27.42;11.85;;;;;;;6.49;59.35;101997.81;5089388;28;20201;-48
2021/03/18 02:55:27;;;;;;;43.40;11.63;;;;;;;6.80;58.72;101989.94;5079022;28;20223;-47
2021/03/18 02:57:54;;;;;;;121.70;17.45;;;;;;;7.23;58.15;101982.03;5084693;28;20315;-51
2021/03/18 03:00:22;;;;;;;32.03;11.18;;;;;;;7.02;58.30;101981.31;5084064;28;20583;-49
2021/03/18 03:02:50;;;;;;;34.40;12.50;;;;;;;7.51;57.32;101975.50;5081733;28;20220;-48
2021/03/18 03:05:20;;;;;;;47.47;11.00;;;;;;;7.66;56.60;101976.63;5082696;28;20323;-51
2021/03/18 03:07:47;;;;;;;49.35;12.10;;;;;;;7.55;56.71;101974.94;5088785;28;20208;-50
2021/03/18 03:10:18;;;;;;;138.35;13.30;;;;;;;7.25;57.23;101974.47;5081812;28;20318;-50
2021/03/18 03:12:45;;;;;;;117.65;14.70;;;;;;;7.27;57.66;101970.31;5081145;28;20208;-49
2021/03/18 03:15:14;;;;;;;57.85;11.90;;;;;;;7.59;57.58;101971.81;5079431;28;20315;-51
2021/03/18 03:17:42;;;;;;;44.00;10.00;;;;;;;7.77;56.85;101968.81;5088195;28;20525;-48
2021/03/18 03:20:11;;;;;;;69.90;13.43;;;;;;;7.65;57.19;101977.41;5083800;28;20270;-48
2021/03/18 03:22:38;;;;;;;87.97;12.98;;;;;;;8.20;56.28;101973.59;5084450;28;20582;-50
2021/03/18 03:25:06;;;;;;;59.28;13.35;;;;;;;8.27;55.55;101980.03;5076293;28;20236;-49
2021/03/18 03:27:34;;;;;;;282.45;25.52;;;;;;;7.96;56.31;101983.88;5085179;28;20591;-49
2021/03/18 03:30:06;;;;;;;125.47;16.65;;;;;;;8.05;56.27;101984.53;5082882;27;20664;-50
2021/03/18 03:32:33;;;;;;;108.70;14.48;;;;;;;7.99;56.70;101983.22;5084604;28;20204;-51
2021/03/18 03:35:01;;;;;;;152.00;16.23;;;;;;;7.98;56.86;101990.03;5074309;28;20298;-50
2021/03/18 03:37:27;;;;;;;54.78;14.23;;;;;;;7.81;57.40;101989.69;5076247;28;20232;-48
2021/03/18 03:39:54;;;;;;;94.05;14.57;;;;;;;8.21;56.90;101991.66;5074675;28;20267;-47
2021/03/18 03:42:21;;;;;;;113.82;17.27;;;;;;;8.66;55.44;101981.06;5076575;28;20518;-48
2021/03/18 03:44:48;;;;;;;122.63;17.20;;;;;;;9.14;54.19;101986.00;5074554;28;20534;-48
2021/03/18 03:47:15;;;;;;;80.13;15.27;;;;;;;9.11;54.29;101986.69;5076363;28;20197;-50
2021/03/18 03:49:42;;;;;;;83.13;15.57;;;;;;;8.87;55.11;101988.50;5074703;28;20232;-52
2021/03/18 03:52:16;;;;;;;61.13;16.15;;;;;;;8.89;55.55;101977.53;5076145;28;20295;-47
2021/03/18 03:54:47;;;;;;;45.67;16.15;;;;;;;8.51;56.33;101973.13;5074343;28;20290;-48
2021/03/18 03:57:18;;;;;;;63.65;16.50;;;;;;;9.13;54.91;101979.06;5075893;28;20205;-52
2021/03/18 03:59:45;;;;;;;74.80;15.40;;;;;;;8.63;55.99;101978.28;5074563;28;20240;-52
2021/03/18 04:02:13;;;;;;;88.22;16.55;;;;;;;9.02;54.97;101978.31;5075605;28;20201;-49
2021/03/18 04:04:42;;;;;;;64.60;15.90;;;;;;;8.15;56.93;101962.94;5074033;28;20247;-47
2021/03/18 04:07:11;;;;;;;75.63;16.90;;;;;;;8.24;57.34;101962.72;5076089;28;20573;-47
2021/03/18 04:09:38;;;;;;;93.60;17.13;;;;;;;8.14;57.47;101961.16;5075068;28;20778;-47
2021/03/18 04:12:07;;;;;;;91.05;19.00;;;;;;;8.31;56.95;101961.47;5080488;28;20285;-50
2021/03/18 04:14:36;;;;;;;44.25;14.60;;;;;;;7.92;58.00;101962.22;5094884;28;20265;-48
2021/03/18 04:17:05;;;;;;;61.40;14.63;;;;;;;7.75;59.03;101957.53;5095875;28;20200;-48
2021/03/18 04:19:33;;;;;;;117.15;19.08;;;;;;;8.12;57.72;101957.59;5094947;28;20242;-47
2021/03/18 04:22:00;;;;;;;211.20;19.58;;;;;;;8.30;57.39;101950.28;5096148;28;20508;-47
2021/03/18 04:24:27;;;;;;;52.63;15.38;;;;;;;7.67;58.69;101950.16;5094803;28;20232;-48
2021/03/18 04:26:54;;;;;;;53.65;13.75;;;;;;;7.66;58.88;101947.47;5092487;28;20200;-48
2021/03/18 04:29:22;;;;;;;58.45;13.57;;;;;;;7.86;58.63;101942.88;5094925;28;20228;-48
2021/03/18 04:31:49;;;;;;;79.07;14.70;;;;;;;7.97;58.31;101948.03;5095699;28;20204;-49
2021/03/18 04:34:18;;;;;;;54.70;15.30;;;;;;;7.74;59.16;101951.47;5094716;28;20243;-50
2021/03/18 04:36:46;;;;;;;61.50;13.93;;;;;;;7.63;59.19;101952.41;5095923;28;20206;-48
2021/03/18 04:39:13;;;;;;;120.20;17.27;;;;;;;8.01;58.65;101956.84;5094612;28;20607;-50
2021/03/18 04:41:40;;;;;;;46.83;14.02;;;;;;;8.26;57.86;101962.81;5095792;28;20318;-50
2021/03/18 04:44:07;;;;;;;66.97;14.75;;;;;;;8.54;56.54;101946.78;5094564;28;20248;-50
2021/03/18 04:46:35;;;;;;;56.95;14.35;;;;;;;8.59;56.23;101951.47;5095538;28;20244;-50
2021/03/18 04:49:03;;;;;;;76.20;14.55;;;;;;;8.71;56.26;101953.97;5094658;28;20318;-51
2021/03/18 04:51:30;;;;;;;41.90;14.15;;;;;;;8.66;56.24;101950.19;5095580;28;20206;-48
2021/03/18 04:53:58;;;;;;;46.40;13.18;;;;;;;8.88;55.55;101951.66;5094382;28;20232;-47
2021/03/18 04:56:26;;;;;;;119.22;17.67;;;;;;;8.63;56.17;101953.44;5095373;28;20200;-48
2021/03/18 04:58:55;;;;;;;35.97;13.88;;;;;;;8.17;57.30;101948.53;5094393;28;20239;-47
2021/03/18 05:01:23;;;;;;;81.18;14.60;;;;;;;8.62;56.88;101948.22;5095425;28;20206;-47
2021/03/18 05:03:50;;;;;;;77.72;14.45;;;;;;;8.80;56.41;101948.56;5094593;28;20232;-47
2021/03/18 05:06:20;;;;;;;38.85;13.05;;;;;;;9.07;55.08;101942.63;5095222;28;20249;-49
2021/03/18 05:08:47;;;;;;;37.92;12.23;;;;;;;8.47;56.49;101938.59;5094655;28;20231;-50
2021/03/18 05:11:15;;;;;;;34.80;11.23;;;;;;;8.32;57.18;101932.41;5095293;28;20204;-48
2021/03/18 05:13:42;;;;;;;51.50;15.27;;;;;;;8.21;57.82;101937.66;5094701;28;20270;-49
2021/03/18 05:16:09;;;;;;;36.03;12.15;;;;;;;8.33;57.66;101935.09;5099356;28;20203;-49
2021/03/18 05:18:36;;;;;;;39.53;14.07;;;;;;;8.31;57.21;101935.75;5098121;28;20236;-47
2021/03/18 05:21:05;;;;;;;47.40;12.85;;;;;;;8.04;58.00;101930.44;5099269;28;20196;-49
2021/03/18 05:23:32;;;;;;;44.65;15.02;;;;;;;8.13;58.01;101927.63;5098011;28;20539;-47
2021/03/18 05:25:59;;;;;;;37.92;13.98;;;;;;;8.20;57.81;101922.16;5098539;28;20527;-46
2021/03/18 05:28:27;;;;;;;33.92;11.77;;;;;;;8.06;57.85;101918.59;5097855;28;20228;-48
2021/03/18 05:30:54;;;;;;;56.30;14.88;;;;;;;8.29;58.16;101911.59;5099256;28;20206;-48
2021/03/18 05:33:21;;;;;;;32.58;10.93;;;;;;;8.47;57.09;101918.00;5097816;28;20539;-49
2021/03/18 05:35:48;;;;;;;71.43;13.68;;;;;;;8.58;57.00;101912.75;5098786;28;20215;-47
2021/03/18 05:38:16;;;;;;;66.05;12.80;;;;;;;8.60;57.03;101914.66;5097568;28;20232;-49
2021/03/18 05:40:46;;;;;;;45.78;12.20;;;;;;;8.53;57.12;101902.16;5098829;28;20594;-49
2021/03/18 05:43:13;;;;;;;39.50;11.15;;;;;;;8.45;57.89;101904.16;5097749;28;20270;-51
2021/03/18 05:45:41;;;;;;;42.60;11.75;;;;;;;8.28;57.57;101899.53;5098701;28;20204;-48
2021/03/18 05:48:08;;;;;;;49.85;12.52;;;;;;;8.11;58.01;101901.84;5097605;28;20230;-47
2021/03/18 05:50:35;;;;;;;68.18;10.90;;;;;;;8.46;57.65;101902.50;5098721;28;20257;-47
2021/03/18 05:53:03;;;;;;;42.55;12.80;;;;;;;8.80;56.97;101904.81;5097270;28;20609;-48
2021/03/18 05:55:29;;;;;;;53.42;12.00;;;;;;;8.96;56.29;101906.72;5098200;28;20242;-48
2021/03/18 05:57:57;;;;;;;41.75;12.20;;;;;;;8.92;56.68;101902.16;5097311;28;20262;-49
2021/03/18 06:00:24;;;;;;;50.17;12.65;;;;;;;8.62;57.06;101907.03;5098548;28;20327;-50
2021/03/18 06:02:52;;;;;;;43.40;14.38;;;;;;;8.48;58.05;101908.63;5098579;28;20208;-53
2021/03/18 06:05:19;;;;;;;67.60;12.98;;;;;;;8.72;57.32;101909.44;5077533;28;20236;-50
2021/03/18 06:07:47;;;;;;;57.15;13.20;;;;;;;8.98;56.80;101918.00;5077970;28;20613;-48
2021/03/18 06:10:15;;;;;;;109.88;15.85;;;;;;;9.23;56.02;101906.78;5096571;28;20243;-48
2021/03/18 06:12:42;;;;;;;123.32;15.55;;;;;;;9.37;55.75;101907.69;5095089;28;20207;-48
2021/03/18 06:15:11;;;;;;;71.65;14.88;;;;;;;9.32;55.75;101909.97;5077347;28;20548;-50
2021/03/18 06:17:38;;;;;;;139.82;19.10;;;;;;;9.39;55.63;101916.38;5077896;28;20652;-48
2021/03/18 06:20:08;;;;;;;84.55;16.40;;;;;;;9.38;55.67;101912.03;5076447;28;20294;-49
2021/03/18 06:22:38;;;;;;;151.98;16.90;;;;;;;9.40;56.04;101907.00;5074805;28;20197;-48
2021/03/18 06:25:06;;;;;;;69.53;14.88;;;;;;;9.36;55.73;101910.16;5076315;28;20643;-47
2021/03/18 06:27:33;;;;;;;63.95;15.55;;;;;;;9.31;56.37;101907.28;5077772;28;20197;-50
2021/03/18 06:30:00;;;;;;;48.20;13.65;;;;;;;9.04;56.73;101918.44;5076336;28;20232;-47
2021/03/18 06:32:26;;;;;;;109.60;18.65;;;;;;;9.19;56.71;101912.53;5077471;28;20238;-48
2021/03/18 06:34:54;;;;;;;103.45;17.08;;;;;;;9.32;56.85;101914.22;5075440;28;20704;-51
2021/03/18 06:37:42;;;;;;;51.78;13.85;;;;;;;9.05;56.77;101912.50;5077773;28;20196;-48
2021/03/18 06:40:11;;;;;;;50.45;14.18;;;;;;;8.87;57.17;101912.16;5095222;28;20671;-50
2021/03/18 06:42:40;;;;;;;43.53;13.85;;;;;;;8.97;57.39;101912.78;5097885;28;20235;-50
2021/03/18 06:45:09;;;;;;;87.97;16.17;;;;;;;9.01;57.10;101913.09;5095725;28;20236;-47
2021/03/18 06:47:40;;;;;;;71.72;17.70;;;;;;;9.40;56.62;101901.84;5097706;28;20206;-49
2021/03/18 06:50:08;;;;;;;133.63;18.65;;;;;;;9.26;57.24;101904.41;5096213;28;20231;-48
2021/03/18 06:52:37;;;;;;;46.80;13.15;;;;;;;8.51;58.82;101903.69;5097528;28;20200;-47
2021/03/18 06:55:06;;;;;;;53.67;14.32;;;;;;;8.49;58.65;101894.97;5095768;28;20271;-49
2021/03/18 06:57:33;;;;;;;80.28;14.95;;;;;;;8.72;58.77;101899.16;5097200;28;20204;-47
2021/03/18 07:00:00;;;;;;;86.53;16.48;;;;;;;9.02;57.74;101894.28;5095865;28;20259;-49
2021/03/18 07:02:27;;;;;;;82.32;15.90;;;;;;;9.11;57.64;101899.13;5097304;28;20673;-48
2021/03/18 07:04:56;;;;;;;101.70;15.77;;;;;;;9.20;57.45;101893.72;5095447;28;20236;-47
2021/03/18 07:07:25;;;;;;;65.45;14.57;;;;;;;9.19;57.74;101891.94;5097194;28;20206;-50
2021/03/18 07:09:54;;;;;;;49.67;13.60;;;;;;;9.62;56.28;101892.91;5095789;28;20235;-47
2021/03/18 07:12:26;;;;;;;56.55;14.15;;;;;;;8.91;58.10;101896.13;5097048;28;20606;-48
2021/03/18 07:14:53;;;;;;;38.28;13.35;;;;;;;8.48;58.79;101899.25;5095300;28;20250;-48
2021/03/18 07:17:28;;;;;;;42.20;11.75;;;;;;;8.71;59.24;101892.22;5097079;28;20291;-51
2021/03/18 07:20:09;;;;;;;64.47;15.60;;;;;;;9.38;57.52;101885.41;5095554;28;20231;-52
2021/03/18 07:22:40;;;;;;;62.95;15.73;;;;;;;9.73;56.84;101892.81;5096812;28;20204;-49
2021/03/18 07:25:10;;;;;;;184.65;20.55;;;;;;;9.88;55.88;101898.84;5094966;28;20289;-48
2021/03/18 07:27:44;;;;;;;122.75;18.33;;;;;;;9.83;56.26;101904.59;5096856;28;20231;-52
2021/03/18 07:30:24;;;;;;;68.35;16.20;;;;;;;9.70;56.30;101899.47;5095307;28;20545;-49
2021/03/18 07:32:52;;;;;;;100.60;20.40;;;;;;;9.96;55.71;101900.22;5096551;28;20492;-53
2021/03/18 07:35:19;;;;;;;136.98;20.85;;;;;;;9.74;56.84;101898.84;5095766;28;20261;-48
2021/03/18 07:37:45;;;;;;;51.08;16.77;;;;;;;9.91;55.55;101891.28;5095924;28;20200;-47
2021/03/18 07:40:13;;;;;;;125.82;18.75;;;;;;;10.15;56.11;101897.06;5095144;28;20239;-48
2021/03/18 07:42:41;;;;;;;88.88;16.25;;;;;;;9.97;55.66;101896.81;5096670;28;20202;-46
2021/03/18 07:45:08;;;;;;;53.05;17.08;;;;;;;9.69;56.64;101895.09;5094667;28;20236;-47
2021/03/18 07:47:36;;;;;;;188.50;21.45;;;;;;;9.83;55.73;101891.69;5096301;28;20203;-47
2021/03/18 07:50:05;;;;;;;82.07;17.87;;;;;;;9.79;56.43;101894.88;5095130;28;20255;-53
2021/03/18 07:52:34;;;;;;;56.38;16.10;;;;;;;9.55;56.98;101887.34;5096587;28;20454;-48
2021/03/18 07:55:01;;;;;;;54.22;16.35;;;;;;;9.94;56.37;101892.38;5094441;28;20232;-52
2021/03/18 07:57:40;;;;;;;74.30;18.23;;;;;;;9.99;55.94;101884.91;5096191;28;20211;-48
2021/03/18 08:00:10;;;;;;;85.97;18.93;;;;;;;10.30;55.12;101891.97;5094803;28;20239;-49
2021/03/18 08:02:37;;;;;;;82.65;18.45;;;;;;;10.52;54.68;101883.00;5096149;28;20434;-48
2021/03/18 08:05:05;;;;;;;54.25;17.05;;;;;;;10.43;55.24;101879.84;5094498;28;20244;-48
2021/03/18 08:07:43;;;;;;;72.00;18.35;;;;;;;10.21;55.09;101881.09;5096133;28;20204;-48
2021/03/18 08:10:11;;;;;;;48.55;13.52;;;;;;;9.99;55.43;101874.59;5094720;28;20307;-49
2021/03/18 08:12:57;;;;;;;43.73;16.07;;;;;;;10.58;54.97;101874.72;5095992;28;20200;-48
2021/03/18 08:15:26;;;;;;;39.70;16.73;;;;;;;10.92;54.32;101872.44;5086644;28;20562;-49
2021/03/18 08:17:54;;;;;;;45.55;15.73;;;;;;;11.05;53.47;101871.47;5074755;28;20454;-49
2021/03/18 08:21:01;;;;;;;30.23;12.63;;;;;;;9.85;55.36;101872.06;5095861;28;20322;-47
2021/03/18 08:23:48;;;;;;;35.40;13.77;;;;;;;9.98;56.77;101873.72;5094569;28;20470;-47
2021/03/18 08:26:43;;;;;;;33.93;14.43;;;;;;;10.37;55.35;101873.47;5095517;28;20856;-48
2021/03/18 08:29:16;;;;;;;36.70;13.53;;;;;;;10.59;55.20;101869.66;5091577;28;20470;-50
2021/03/18 08:31:48;;;;;;;39.90;15.43;;;;;;;10.55;54.85;101872.84;5095271;28;20466;-48
2021/03/18 08:34:16;;;;;;;47.58;16.25;;;;;;;10.76;54.51;101867.16;5081907;28;20471;-48
2021/03/18 08:36:54;;;;;;;37.88;15.07;;;;;;;10.80;55.37;101863.97;5073900;28;20209;-52
2021/03/18 08:39:42;;;;;;;32.97;13.20;;;;;;;10.56;55.88;101853.97;5085953;28;20318;-51
2021/03/18 08:42:35;;;;;;;35.00;14.33;;;;;;;11.28;53.48;101858.06;5095759;28;20460;-49
2021/03/18 08:45:06;;;;;;;41.63;14.20;;;;;;;11.02;53.35;101854.91;5075614;28;20449;-49
2021/03/18 08:47:37;;;;;;;32.00;13.50;;;;;;;11.40;52.72;101848.44;5075100;28;20465;-54
2021/03/18 08:50:08;;;;;;;27.03;12.43;;;;;;;11.52;52.52;101852.47;5092786;28;20463;-48
2021/03/18 08:52:40;;;;;;;32.27;12.80;;;;;;;11.05;52.52;101855.06;5095321;28;20461;-49
2021/03/18 08:55:08;;;;;;;24.73;12.90;;;;;;;10.72;54.06;101854.88;5093655;27;20536;-48
2021/03/18 08:57:35;;;;;;;27.97;12.87;;;;;;;11.12;53.89;101862.34;5095100;28;20444;-51
2021/03/18 09:00:13;;;;;;;24.30;11.77;;;;;;;11.24;53.76;101861.28;5075615;28;20472;-47
2021/03/18 09:02:45;;;;;;;58.57;21.70;;;;;;;11.25;53.73;101858.78;5075142;28;20474;-48
2021/03/18 09:05:13;;;;;;;26.40;11.50;;;;;;;11.10;53.98;101869.13;5073532;28;20459;-47
2021/03/18 09:07:44;;;;;;;33.63;14.53;;;;;;;11.02;54.29;101867.81;5075220;28;20758;-47
2021/03/18 09:10:14;;;;;;;24.10;10.60;;;;;;;10.85;53.97;101867.72;5068710;28;20483;-46
2021/03/18 09:12:45;;;;;;;24.33;12.70;;;;;;;10.74;53.92;101873.94;5055040;28;20466;-49
2021/03/18 09:15:25;;;;;;;20.67;9.80;;;;;;;11.00;53.16;101880.63;5053074;28;20554;-48
2021/03/18 09:17:54;;;;;;;17.80;9.63;;;;;;;11.55;50.40;101874.25;5055139;28;20451;-48
2021/03/18 09:20:24;;;;;;;21.30;10.33;;;;;;;10.95;52.61;101874.31;5054454;28;20582;-47
2021/03/18 09:22:51;;;;;;;22.47;10.13;;;;;;;11.42;50.73;101880.41;5055090;28;20430;-47
2021/03/18 09:25:17;;;;;;;20.93;9.60;;;;;;;11.37;50.56;101876.66;5073850;28;20557;-49
2021/03/18 09:27:45;;;;;;;22.80;10.63;;;;;;;11.29;51.98;101871.06;5081037;28;20519;-47
2021/03/18 09:30:25;;;;;;;56.57;25.13;;;;;;;10.91;53.22;101872.31;5093671;28;20831;-48
2021/03/18 09:32:52;;;;;;;35.23;17.83;;;;;;;11.41;52.42;101865.72;5095088;28;20850;-48
2021/03/18 09:35:20;;;;;;;41.77;17.27;;;;;;;11.33;52.65;101872.13;5094148;28;20784;-48
2021/03/18 09:37:57;;;;;;;22.83;10.03;;;;;;;11.10;51.80;101869.13;5093633;28;20829;-48
2021/03/18 09:40:34;;;;;;;19.43;9.60;;;;;;;11.03;52.71;101874.75;5094958;28;20738;-47
2021/03/18 09:43:03;;;;;;;22.30;9.87;;;;;;;11.53;49.62;101860.31;5093899;28;20549;-50
2021/03/18 09:45:31;;;;;;;18.60;10.03;;;;;;;12.10;48.66;101861.66;5094206;28;20461;-49
2021/03/18 09:47:58;;;;;;;18.10;8.20;;;;;;;11.83;49.27;101852.47;5093483;28;20505;-48
2021/03/18 09:50:28;;;;;;;17.90;9.60;;;;;;;12.31;48.38;101854.13;5094788;28;20514;-48
2021/03/18 09:53:10;;;;;;;19.37;9.70;;;;;;;12.04;48.15;101853.59;5093363;28;20880;-53
2021/03/18 09:55:38;;;;;;;16.67;8.87;;;;;;;11.91;48.25;101852.00;5094601;28;20517;-51
2021/03/18 09:58:09;;;;;;;19.37;9.20;;;;;;;12.21;47.79;101847.56;5093404;28;20486;-49
2021/03/18 10:00:36;;;;;;;15.97;8.93;;;;;;;12.05;48.11;101856.22;5096723;28;20489;-47
2021/03/18 10:03:04;;;;;;;13.97;7.80;;;;;;;11.91;49.01;101852.91;5096996;28;20450;-49
2021/03/18 10:05:32;;;;;;;15.13;7.80;;;;;;;11.82;48.26;101852.38;5098246;28;20482;-48
2021/03/18 10:07:59;;;;;;;15.60;8.20;;;;;;;11.96;47.84;101855.72;5097073;28;20557;-48
2021/03/18 10:10:27;;;;;;;15.60;7.60;;;;;;;11.56;48.93;101849.25;5097937;28;20486;-47
2021/03/18 10:12:54;;;;;;;22.27;10.80;;;;;;;11.89;48.16;101851.91;5097936;28;20524;-47
2021/03/18 10:15:21;;;;;;;18.83;7.97;;;;;;;12.06;46.95;101846.78;5097387;28;20520;-49
2021/03/18 10:17:50;;;;;;;14.00;8.30;;;;;;;12.18;48.02;101834.50;5098048;28;20472;-48
2021/03/18 10:20:20;;;;;;;18.83;8.10;;;;;;;11.70;48.94;101832.81;5096482;28;20756;-48
2021/03/18 10:22:50;;;;;;;24.30;10.73;;;;;;;11.67;48.87;101822.31;5098131;28;20527;-48
2021/03/18 10:25:18;;;;;;;12.37;7.40;;;;;;;12.70;46.38;101822.44;5096381;28;20539;-48
2021/03/18 10:27:47;;;;;;;44.03;18.43;;;;;;;12.93;46.28;101810.63;5097851;28;20464;-51
2021/03/18 10:30:16;;;;;;;14.00;8.07;;;;;;;12.88;45.62;101808.63;5096783;28;20445;-50
2021/03/18 10:32:59;;;;;;;12.10;6.70;;;;;;;12.22;46.87;101817.44;5097799;28;20944;-51
2021/03/18 10:35:27;;;;;;;12.60;6.30;;;;;;;11.78;47.90;101809.97;5096439;28;20487;-51
2021/03/18 10:37:54;;;;;;;14.70;7.10;;;;;;;11.32;48.83;101804.06;5097663;28;20561;-49
2021/03/18 10:40:23;;;;;;;15.40;6.60;;;;;;;11.30;49.49;101804.78;5096003;28;20484;-48
2021/03/18 10:42:53;;;;;;;18.53;7.50;;;;;;;12.00;48.41;101804.22;5097572;28;20460;-48
2021/03/18 10:45:31;;;;;;;14.33;7.87;;;;;;;12.82;45.86;101796.28;5095847;28;20540;-49
2021/03/18 10:48:00;;;;;;;13.93;6.60;;;;;;;11.99;47.60;101793.78;5097479;28;20452;-48
2021/03/18 10:50:30;;;;;;;13.87;6.67;;;;;;;11.79;48.51;101793.63;5079264;28;20476;-50
2021/03/18 10:52:59;;;;;;;13.10;6.30;;;;;;;11.61;48.32;101790.97;5077110;28;20434;-48
2021/03/18 10:55:29;;;;;;;17.20;7.50;;;;;;;11.85;48.05;101795.69;5092361;28;20752;-47
2021/03/18 10:58:02;;;;;;;13.43;6.00;;;;;;;12.24;47.39;101793.41;5097381;28;20568;-48
2021/03/18 11:00:31;;;;;;;12.57;6.77;;;;;;;11.54;48.48;101794.03;5090220;28;20490;-48
2021/03/18 11:03:07;;;;;;;12.30;6.90;;;;;;;12.04;47.70;101782.03;5097279;28;20450;-46
2021/03/18 11:05:38;;;;;;;12.33;7.00;;;;;;;12.25;48.11;101774.50;5077715;28;20804;-48
2021/03/18 11:08:06;;;;;;;17.80;8.07;;;;;;;12.50;46.96;101782.59;5076985;28;20449;-49
2021/03/18 11:10:39;;;;;;;17.10;6.70;;;;;;;11.96;48.19;101781.63;5093312;28;20456;-48
2021/03/18 11:13:07;;;;;;;16.13;6.90;;;;;;;13.01;46.73;101773.84;5095816;28;20909;-48
2021/03/18 11:15:52;;;;;;;11.27;6.43;;;;;;;13.16;44.96;101759.03;5095027;28;20473;-48
2021/03/18 11:18:26;;;;;;;19.40;10.53;;;;;;;12.61;46.08;101760.72;5095650;28;20934;-49
2021/03/18 11:20:54;;;;;;;19.67;8.63;;;;;;;13.49;45.01;101752.81;5095601;28;20772;-48
2021/03/18 11:23:32;;;;;;;12.70;7.50;;;;;;;13.76;42.83;101755.72;5095917;28;20480;-51
2021/03/18 11:26:00;;;;;;;15.37;7.70;;;;;;;13.65;43.10;101746.59;5094732;28;20762;-51